Abnaki, Vermont
Current Conditions -  °F | °C
As of 11:15 PM on Sunday 23 Nov 2014 (Local Time) from KFSO Reporting Station
Overcast Overcast  
Wind Chill: 43°   Ceiling: 9000
Heat Index: 46°   Visibility: 10mi
Dew Point: 40°   Wind: 5mph
Humidity: 81%   Direction: 140°SE
Pressure: 29.94"   Gusts: NA
Location:  44.841°N, 73.2779°W
Report Text: KFSO 240415Z AUTO 14004KT 10SM SCT070 OVC090 08/04 A2994 RMK AO2 T00750044
Loading
Personal Weather Stations






























Interactive Weather Map New forecast layout! Learn more

10-Day Weather Forecast

Advertisements
Track Severe Weather on mobile